sensor_id;sensor_type;location;lat;lon;timestamp;temperature;humidity
318;DHT22;146;53.448;10.228;2023-02-04T00:00:00;3.90;1.00
318;DHT22;146;53.448;10.228;2023-02-04T00:02:29;4.00;1.00
318;DHT22;146;53.448;10.228;2023-02-04T00:04:55;4.10;1.00
318;DHT22;146;53.448;10.228;2023-02-04T00:07:22;4.10;1.00
318;DHT22;146;53.448;10.228;2023-02-04T00:09:49;4.20;1.00
318;DHT22;146;53.448;10.228;2023-02-04T00:12:18;4.20;1.00
318;DHT22;146;53.448;10.228;2023-02-04T00:14:45;4.30;1.00
318;DHT22;146;53.448;10.228;2023-02-04T00:17:11;4.40;1.00
318;DHT22;146;53.448;10.228;2023-02-04T00:19:40;4.50;1.00
318;DHT22;146;53.448;10.228;2023-02-04T00:22:07;4.60;1.00
318;DHT22;146;53.448;10.228;2023-02-04T00:24:34;4.60;1.00
318;DHT22;146;53.448;10.228;2023-02-04T00:27:01;4.60;1.00
318;DHT22;146;53.448;10.228;2023-02-04T00:29:28;4.60;1.00
318;DHT22;146;53.448;10.228;2023-02-04T00:31:55;4.60;1.00
318;DHT22;146;53.448;10.228;2023-02-04T00:34:22;4.70;1.00
318;DHT22;146;53.448;10.228;2023-02-04T00:36:50;4.70;1.00
318;DHT22;146;53.448;10.228;2023-02-04T00:39:17;4.60;1.00
318;DHT22;146;53.448;10.228;2023-02-04T00:41:43;4.70;1.00
318;DHT22;146;53.448;10.228;2023-02-04T00:44:10;4.70;1.00
318;DHT22;146;53.448;10.228;2023-02-04T00:46:38;4.60;1.00
318;DHT22;146;53.448;10.228;2023-02-04T00:49:05;4.70;1.00
318;DHT22;146;53.448;10.228;2023-02-04T00:51:35;4.70;1.00
318;DHT22;146;53.448;10.228;2023-02-04T00:54:04;4.60;1.00
318;DHT22;146;53.448;10.228;2023-02-04T00:56:31;4.50;1.00
318;DHT22;146;53.448;10.228;2023-02-04T00:58:58;4.50;1.00
318;DHT22;146;53.448;10.228;2023-02-04T01:01:25;4.50;1.00
318;DHT22;146;53.448;10.228;2023-02-04T01:03:51;4.50;1.00
318;DHT22;146;53.448;10.228;2023-02-04T01:06:18;4.40;1.00
318;DHT22;146;53.448;10.228;2023-02-04T01:08:45;4.40;1.00
318;DHT22;146;53.448;10.228;2023-02-04T01:11:13;4.30;1.00
318;DHT22;146;53.448;10.228;2023-02-04T01:13:40;4.20;1.00
318;DHT22;146;53.448;10.228;2023-02-04T01:16:07;4.10;1.00
318;DHT22;146;53.448;10.228;2023-02-04T01:18:34;4.00;1.00
318;DHT22;146;53.448;10.228;2023-02-04T01:21:01;3.90;1.00
318;DHT22;146;53.448;10.228;2023-02-04T01:23:28;3.90;1.00
318;DHT22;146;53.448;10.228;2023-02-04T01:25:56;3.90;1.00
318;DHT22;146;53.448;10.228;2023-02-04T01:28:24;3.90;1.00
318;DHT22;146;53.448;10.228;2023-02-04T01:31:11;3.90;1.00
318;DHT22;146;53.448;10.228;2023-02-04T01:33:56;3.80;1.00
318;DHT22;146;53.448;10.228;2023-02-04T01:36:23;3.80;1.00
318;DHT22;146;53.448;10.228;2023-02-04T01:38:53;3.80;1.00
318;DHT22;146;53.448;10.228;2023-02-04T01:41:20;3.80;1.00
318;DHT22;146;53.448;10.228;2023-02-04T01:43:48;3.80;1.00
318;DHT22;146;53.448;10.228;2023-02-04T01:46:15;3.90;1.00
318;DHT22;146;53.448;10.228;2023-02-04T01:48:42;4.00;1.00
318;DHT22;146;53.448;10.228;2023-02-04T01:51:11;4.10;1.00
318;DHT22;146;53.448;10.228;2023-02-04T01:53:42;4.20;1.00
318;DHT22;146;53.448;10.228;2023-02-04T01:56:15;4.30;1.00
318;DHT22;146;53.448;10.228;2023-02-04T01:58:48;4.40;1.00
318;DHT22;146;53.448;10.228;2023-02-04T02:01:34;4.40;1.00
318;DHT22;146;53.448;10.228;2023-02-04T02:04:01;4.30;1.00
318;DHT22;146;53.448;10.228;2023-02-04T02:06:31;4.20;1.00
318;DHT22;146;53.448;10.228;2023-02-04T02:09:01;4.20;1.00
318;DHT22;146;53.448;10.228;2023-02-04T02:11:28;4.30;1.00
318;DHT22;146;53.448;10.228;2023-02-04T02:13:56;4.30;1.00
318;DHT22;146;53.448;10.228;2023-02-04T02:16:23;4.40;1.00
318;DHT22;146;53.448;10.228;2023-02-04T02:18:50;4.50;1.00
318;DHT22;146;53.448;10.228;2023-02-04T02:21:23;4.40;1.00
318;DHT22;146;53.448;10.228;2023-02-04T02:23:56;4.40;1.00
318;DHT22;146;53.448;10.228;2023-02-04T02:26:25;4.50;1.00
318;DHT22;146;53.448;10.228;2023-02-04T02:28:53;4.50;1.00
318;DHT22;146;53.448;10.228;2023-02-04T02:31:21;4.50;1.00
318;DHT22;146;53.448;10.228;2023-02-04T02:33:49;4.40;1.00
318;DHT22;146;53.448;10.228;2023-02-04T02:36:25;4.40;1.00
318;DHT22;146;53.448;10.228;2023-02-04T02:38:57;4.50;1.00
318;DHT22;146;53.448;10.228;2023-02-04T02:41:24;4.40;1.00
318;DHT22;146;53.448;10.228;2023-02-04T02:43:51;4.50;1.00
318;DHT22;146;53.448;10.228;2023-02-04T02:46:18;4.50;1.00
318;DHT22;146;53.448;10.228;2023-02-04T02:48:45;4.50;1.00
318;DHT22;146;53.448;10.228;2023-02-04T02:51:12;4.50;1.00
318;DHT22;146;53.448;10.228;2023-02-04T02:53:39;4.40;1.00
318;DHT22;146;53.448;10.228;2023-02-04T02:56:08;4.40;1.00
318;DHT22;146;53.448;10.228;2023-02-04T02:58:35;4.40;1.00
318;DHT22;146;53.448;10.228;2023-02-04T03:01:04;4.40;1.00
318;DHT22;146;53.448;10.228;2023-02-04T03:03:33;4.40;1.00
318;DHT22;146;53.448;10.228;2023-02-04T03:06:05;4.30;1.00
318;DHT22;146;53.448;10.228;2023-02-04T03:08:33;4.30;1.00
318;DHT22;146;53.448;10.228;2023-02-04T03:11:00;4.30;1.00
318;DHT22;146;53.448;10.228;2023-02-04T03:13:29;4.30;1.00
318;DHT22;146;53.448;10.228;2023-02-04T03:15:56;4.30;1.00
318;DHT22;146;53.448;10.228;2023-02-04T03:18:23;4.20;1.00
318;DHT22;146;53.448;10.228;2023-02-04T03:20:51;4.20;1.00
318;DHT22;146;53.448;10.228;2023-02-04T03:23:18;4.10;1.00
318;DHT22;146;53.448;10.228;2023-02-04T03:25:45;4.00;1.00
318;DHT22;146;53.448;10.228;2023-02-04T03:28:12;3.90;1.00
318;DHT22;146;53.448;10.228;2023-02-04T03:30:40;3.90;1.00
318;DHT22;146;53.448;10.228;2023-02-04T03:33:07;3.80;1.00
318;DHT22;146;53.448;10.228;2023-02-04T03:35:34;3.70;1.00
318;DHT22;146;53.448;10.228;2023-02-04T03:38:01;3.60;1.00
318;DHT22;146;53.448;10.228;2023-02-04T03:40:27;3.60;1.00
318;DHT22;146;53.448;10.228;2023-02-04T03:42:54;3.50;1.00
318;DHT22;146;53.448;10.228;2023-02-04T03:45:21;3.50;1.00
318;DHT22;146;53.448;10.228;2023-02-04T03:47:49;3.40;1.00
318;DHT22;146;53.448;10.228;2023-02-04T03:50:17;3.40;1.00
318;DHT22;146;53.448;10.228;2023-02-04T03:52:44;3.30;1.00
318;DHT22;146;53.448;10.228;2023-02-04T03:55:10;3.30;1.00
318;DHT22;146;53.448;10.228;2023-02-04T03:57:37;3.20;1.00
318;DHT22;146;53.448;10.228;2023-02-04T04:00:05;3.20;1.00
318;DHT22;146;53.448;10.228;2023-02-04T04:02:31;3.20;1.00
318;DHT22;146;53.448;10.228;2023-02-04T04:05:00;3.10;1.00
318;DHT22;146;53.448;10.228;2023-02-04T04:07:26;3.10;1.00
318;DHT22;146;53.448;10.228;2023-02-04T04:09:53;3.10;1.00
318;DHT22;146;53.448;10.228;2023-02-04T04:12:20;3.10;1.00
318;DHT22;146;53.448;10.228;2023-02-04T04:14:47;3.20;1.00
318;DHT22;146;53.448;10.228;2023-02-04T04:17:13;3.20;1.00
318;DHT22;146;53.448;10.228;2023-02-04T04:19:41;3.20;1.00
318;DHT22;146;53.448;10.228;2023-02-04T04:22:10;3.20;1.00
318;DHT22;146;53.448;10.228;2023-02-04T04:24:37;3.10;1.00
318;DHT22;146;53.448;10.228;2023-02-04T04:27:04;3.00;1.00
318;DHT22;146;53.448;10.228;2023-02-04T04:29:30;3.00;1.00
318;DHT22;146;53.448;10.228;2023-02-04T04:31:57;3.00;1.00
318;DHT22;146;53.448;10.228;2023-02-04T04:34:24;3.00;1.00
318;DHT22;146;53.448;10.228;2023-02-04T04:36:51;2.90;1.00
318;DHT22;146;53.448;10.228;2023-02-04T04:39:19;2.90;1.00
318;DHT22;146;53.448;10.228;2023-02-04T04:41:46;2.90;1.00
318;DHT22;146;53.448;10.228;2023-02-04T04:44:13;2.90;1.00
318;DHT22;146;53.448;10.228;2023-02-04T04:46:40;2.90;1.00
318;DHT22;146;53.448;10.228;2023-02-04T04:49:06;2.90;1.00
318;DHT22;146;53.448;10.228;2023-02-04T04:51:33;2.80;1.00
318;DHT22;146;53.448;10.228;2023-02-04T04:54:00;2.80;1.00
318;DHT22;146;53.448;10.228;2023-02-04T04:56:28;2.80;1.00
318;DHT22;146;53.448;10.228;2023-02-04T04:58:55;2.70;1.00
318;DHT22;146;53.448;10.228;2023-02-04T05:01:22;2.70;1.00
318;DHT22;146;53.448;10.228;2023-02-04T05:03:48;2.70;1.00
318;DHT22;146;53.448;10.228;2023-02-04T05:06:15;2.60;1.00
318;DHT22;146;53.448;10.228;2023-02-04T05:08:42;2.60;1.00
318;DHT22;146;53.448;10.228;2023-02-04T05:11:09;2.60;1.00
318;DHT22;146;53.448;10.228;2023-02-04T05:13:37;2.60;1.00
318;DHT22;146;53.448;10.228;2023-02-04T05:16:04;2.60;1.00
318;DHT22;146;53.448;10.228;2023-02-04T05:18:31;2.50;1.00
318;DHT22;146;53.448;10.228;2023-02-04T05:20:58;2.50;1.00
318;DHT22;146;53.448;10.228;2023-02-04T05:23:25;2.50;1.00
318;DHT22;146;53.448;10.228;2023-02-04T05:25:52;2.40;1.00
318;DHT22;146;53.448;10.228;2023-02-04T05:28:19;2.30;1.00
318;DHT22;146;53.448;10.228;2023-02-04T05:30:47;2.40;1.00
318;DHT22;146;53.448;10.228;2023-02-04T05:33:14;2.40;1.00
318;DHT22;146;53.448;10.228;2023-02-04T05:35:41;2.50;1.00
318;DHT22;146;53.448;10.228;2023-02-04T05:38:08;2.50;1.00
318;DHT22;146;53.448;10.228;2023-02-04T05:40:35;2.50;1.00
318;DHT22;146;53.448;10.228;2023-02-04T05:43:01;2.60;1.00
318;DHT22;146;53.448;10.228;2023-02-04T05:45:29;2.60;1.00
318;DHT22;146;53.448;10.228;2023-02-04T05:47:57;2.60;1.00
318;DHT22;146;53.448;10.228;2023-02-04T05:50:24;2.70;1.00
318;DHT22;146;53.448;10.228;2023-02-04T05:52:51;2.80;1.00
318;DHT22;146;53.448;10.228;2023-02-04T05:55:18;2.80;1.00
318;DHT22;146;53.448;10.228;2023-02-04T05:57:44;2.70;1.00
318;DHT22;146;53.448;10.228;2023-02-04T06:00:13;2.70;1.00
318;DHT22;146;53.448;10.228;2023-02-04T06:02:40;2.70;1.00
318;DHT22;146;53.448;10.228;2023-02-04T06:05:13;2.60;1.00
318;DHT22;146;53.448;10.228;2023-02-04T06:07:41;2.60;1.00
318;DHT22;146;53.448;10.228;2023-02-04T06:10:10;2.60;1.00
318;DHT22;146;53.448;10.228;2023-02-04T06:12:38;2.50;1.00
318;DHT22;146;53.448;10.228;2023-02-04T06:15:06;2.50;1.00
318;DHT22;146;53.448;10.228;2023-02-04T06:17:33;2.40;1.00
318;DHT22;146;53.448;10.228;2023-02-04T06:19:59;2.30;1.00
318;DHT22;146;53.448;10.228;2023-02-04T06:22:28;2.30;1.00
318;DHT22;146;53.448;10.228;2023-02-04T06:24:54;2.20;1.00
318;DHT22;146;53.448;10.228;2023-02-04T06:27:21;2.20;1.00
318;DHT22;146;53.448;10.228;2023-02-04T06:29:48;2.10;1.00
318;DHT22;146;53.448;10.228;2023-02-04T06:32:15;2.10;1.00
318;DHT22;146;53.448;10.228;2023-02-04T06:34:42;2.00;1.00
318;DHT22;146;53.448;10.228;2023-02-04T06:37:09;2.00;1.00
318;DHT22;146;53.448;10.228;2023-02-04T06:39:38;2.00;1.00
318;DHT22;146;53.448;10.228;2023-02-04T06:42:14;1.90;1.00
318;DHT22;146;53.448;10.228;2023-02-04T06:44:41;1.90;1.00
318;DHT22;146;53.448;10.228;2023-02-04T06:47:07;1.80;1.00
318;DHT22;146;53.448;10.228;2023-02-04T06:49:34;1.70;1.00
318;DHT22;146;53.448;10.228;2023-02-04T06:52:01;1.70;1.00
318;DHT22;146;53.448;10.228;2023-02-04T06:54:28;1.70;1.00
318;DHT22;146;53.448;10.228;2023-02-04T06:56:56;1.70;1.00
318;DHT22;146;53.448;10.228;2023-02-04T06:59:28;1.70;1.00
318;DHT22;146;53.448;10.228;2023-02-04T07:02:00;1.70;1.00
318;DHT22;146;53.448;10.228;2023-02-04T07:04:27;1.70;1.00
318;DHT22;146;53.448;10.228;2023-02-04T07:06:54;1.70;1.00
318;DHT22;146;53.448;10.228;2023-02-04T07:09:21;1.70;1.00
318;DHT22;146;53.448;10.228;2023-02-04T07:11:47;1.70;1.00
318;DHT22;146;53.448;10.228;2023-02-04T07:14:16;1.70;1.00
318;DHT22;146;53.448;10.228;2023-02-04T07:16:43;1.70;1.00
318;DHT22;146;53.448;10.228;2023-02-04T07:19:09;1.70;1.00
318;DHT22;146;53.448;10.228;2023-02-04T07:21:36;1.70;1.00
318;DHT22;146;53.448;10.228;2023-02-04T07:24:03;1.70;1.00
318;DHT22;146;53.448;10.228;2023-02-04T07:26:30;1.90;1.00
318;DHT22;146;53.448;10.228;2023-02-04T07:28:58;1.90;1.00
318;DHT22;146;53.448;10.228;2023-02-04T07:31:27;2.00;1.00
318;DHT22;146;53.448;10.228;2023-02-04T07:33:53;1.90;1.00
318;DHT22;146;53.448;10.228;2023-02-04T07:36:20;1.90;1.00
318;DHT22;146;53.448;10.228;2023-02-04T07:38:47;2.00;1.00
318;DHT22;146;53.448;10.228;2023-02-04T07:41:14;2.00;1.00
318;DHT22;146;53.448;10.228;2023-02-04T07:43:41;2.00;1.00
318;DHT22;146;53.448;10.228;2023-02-04T07:46:07;2.00;1.00
318;DHT22;146;53.448;10.228;2023-02-04T07:48:36;2.00;1.00
318;DHT22;146;53.448;10.228;2023-02-04T07:51:02;2.00;1.00
318;DHT22;146;53.448;10.228;2023-02-04T07:53:29;2.00;1.00
318;DHT22;146;53.448;10.228;2023-02-04T07:55:56;2.10;1.00
318;DHT22;146;53.448;10.228;2023-02-04T07:58:23;2.10;1.00
318;DHT22;146;53.448;10.228;2023-02-04T08:00:50;2.20;1.00
318;DHT22;146;53.448;10.228;2023-02-04T08:03:16;2.20;1.00
318;DHT22;146;53.448;10.228;2023-02-04T08:05:45;2.20;1.00
318;DHT22;146;53.448;10.228;2023-02-04T08:08:11;2.30;1.00
318;DHT22;146;53.448;10.228;2023-02-04T08:10:39;2.30;1.00
318;DHT22;146;53.448;10.228;2023-02-04T08:13:06;2.40;1.00
318;DHT22;146;53.448;10.228;2023-02-04T08:15:33;2.40;1.00
318;DHT22;146;53.448;10.228;2023-02-04T08:18:00;2.50;1.00
318;DHT22;146;53.448;10.228;2023-02-04T08:20:27;2.50;1.00
318;DHT22;146;53.448;10.228;2023-02-04T08:22:55;2.50;1.00
318;DHT22;146;53.448;10.228;2023-02-04T08:25:22;2.60;1.00
318;DHT22;146;53.448;10.228;2023-02-04T08:27:49;2.60;1.00
318;DHT22;146;53.448;10.228;2023-02-04T08:30:16;2.70;1.00
318;DHT22;146;53.448;10.228;2023-02-04T08:32:43;2.70;1.00
318;DHT22;146;53.448;10.228;2023-02-04T08:35:09;2.80;1.00
318;DHT22;146;53.448;10.228;2023-02-04T08:37:37;2.90;1.00
318;DHT22;146;53.448;10.228;2023-02-04T08:40:06;2.90;1.00
318;DHT22;146;53.448;10.228;2023-02-04T08:42:33;3.00;1.00
318;DHT22;146;53.448;10.228;2023-02-04T08:45:00;3.10;1.00
318;DHT22;146;53.448;10.228;2023-02-04T08:47:27;3.10;1.00
318;DHT22;146;53.448;10.228;2023-02-04T08:49:53;3.20;1.00
318;DHT22;146;53.448;10.228;2023-02-04T08:52:20;3.30;1.00
318;DHT22;146;53.448;10.228;2023-02-04T08:54:47;3.40;1.00
318;DHT22;146;53.448;10.228;2023-02-04T08:57:15;3.30;1.00
318;DHT22;146;53.448;10.228;2023-02-04T08:59:42;3.40;1.00
318;DHT22;146;53.448;10.228;2023-02-04T09:02:10;3.30;1.00
318;DHT22;146;53.448;10.228;2023-02-04T09:04:37;3.40;1.00
318;DHT22;146;53.448;10.228;2023-02-04T09:07:04;3.40;1.00
318;DHT22;146;53.448;10.228;2023-02-04T09:09:31;3.50;1.00
318;DHT22;146;53.448;10.228;2023-02-04T09:11:57;3.50;1.00
318;DHT22;146;53.448;10.228;2023-02-04T09:14:27;3.60;1.00
318;DHT22;146;53.448;10.228;2023-02-04T09:16:54;3.70;1.00
318;DHT22;146;53.448;10.228;2023-02-04T09:19:21;3.70;1.00
318;DHT22;146;53.448;10.228;2023-02-04T09:21:50;3.70;1.00
318;DHT22;146;53.448;10.228;2023-02-04T09:24:17;3.80;1.00
318;DHT22;146;53.448;10.228;2023-02-04T09:26:43;4.00;1.00
318;DHT22;146;53.448;10.228;2023-02-04T09:29:10;4.00;1.00
318;DHT22;146;53.448;10.228;2023-02-04T09:31:38;4.00;1.00
318;DHT22;146;53.448;10.228;2023-02-04T09:34:05;4.00;1.00
318;DHT22;146;53.448;10.228;2023-02-04T09:36:32;4.10;1.00
318;DHT22;146;53.448;10.228;2023-02-04T09:39:03;4.10;1.00
318;DHT22;146;53.448;10.228;2023-02-04T09:41:30;4.20;1.00
318;DHT22;146;53.448;10.228;2023-02-04T09:43:57;4.20;1.00
318;DHT22;146;53.448;10.228;2023-02-04T09:46:25;4.30;1.00
318;DHT22;146;53.448;10.228;2023-02-04T09:48:57;4.40;1.00
318;DHT22;146;53.448;10.228;2023-02-04T09:51:27;4.50;1.00
318;DHT22;146;53.448;10.228;2023-02-04T09:54:01;4.60;1.00
318;DHT22;146;53.448;10.228;2023-02-04T09:56:30;4.60;1.00
318;DHT22;146;53.448;10.228;2023-02-04T09:58:57;4.70;1.00
318;DHT22;146;53.448;10.228;2023-02-04T10:01:26;4.70;1.00
318;DHT22;146;53.448;10.228;2023-02-04T10:03:56;4.80;1.00
318;DHT22;146;53.448;10.228;2023-02-04T10:06:25;4.80;1.00
318;DHT22;146;53.448;10.228;2023-02-04T10:08:52;4.90;1.00
318;DHT22;146;53.448;10.228;2023-02-04T10:11:21;4.90;1.00
318;DHT22;146;53.448;10.228;2023-02-04T10:13:50;4.90;1.00
318;DHT22;146;53.448;10.228;2023-02-04T10:16:19;4.90;1.00
318;DHT22;146;53.448;10.228;2023-02-04T10:18:46;4.90;1.00
318;DHT22;146;53.448;10.228;2023-02-04T10:21:18;5.00;1.00
318;DHT22;146;53.448;10.228;2023-02-04T10:23:48;5.00;1.00
318;DHT22;146;53.448;10.228;2023-02-04T10:26:16;5.00;1.00
318;DHT22;146;53.448;10.228;2023-02-04T10:28:43;5.10;1.00
318;DHT22;146;53.448;10.228;2023-02-04T10:31:27;5.10;1.00
318;DHT22;146;53.448;10.228;2023-02-04T10:34:03;5.20;1.00
318;DHT22;146;53.448;10.228;2023-02-04T10:36:31;5.30;1.00
318;DHT22;146;53.448;10.228;2023-02-04T10:38:59;5.30;1.00
318;DHT22;146;53.448;10.228;2023-02-04T10:41:26;5.40;1.00
318;DHT22;146;53.448;10.228;2023-02-04T10:44:01;5.40;1.00
318;DHT22;146;53.448;10.228;2023-02-04T10:46:29;5.50;1.00
318;DHT22;146;53.448;10.228;2023-02-04T10:48:55;5.60;1.00
318;DHT22;146;53.448;10.228;2023-02-04T10:51:22;5.70;1.00
318;DHT22;146;53.448;10.228;2023-02-04T10:53:50;5.70;1.00
318;DHT22;146;53.448;10.228;2023-02-04T10:56:35;5.50;1.00
318;DHT22;146;53.448;10.228;2023-02-04T10:59:02;5.50;1.00
318;DHT22;146;53.448;10.228;2023-02-04T11:01:29;5.60;1.00
318;DHT22;146;53.448;10.228;2023-02-04T11:03:56;5.70;1.00
318;DHT22;146;53.448;10.228;2023-02-04T11:06:24;5.80;1.00
318;DHT22;146;53.448;10.228;2023-02-04T11:08:52;5.90;1.00
318;DHT22;146;53.448;10.228;2023-02-04T11:11:22;6.00;1.00
318;DHT22;146;53.448;10.228;2023-02-04T11:14:00;6.00;1.00
318;DHT22;146;53.448;10.228;2023-02-04T11:16:29;6.00;1.00
318;DHT22;146;53.448;10.228;2023-02-04T11:18:59;6.00;1.00
318;DHT22;146;53.448;10.228;2023-02-04T11:21:28;6.20;1.00
318;DHT22;146;53.448;10.228;2023-02-04T11:24:22;6.30;1.00
318;DHT22;146;53.448;10.228;2023-02-04T11:26:51;6.40;1.00
318;DHT22;146;53.448;10.228;2023-02-04T11:29:25;6.50;1.00
318;DHT22;146;53.448;10.228;2023-02-04T11:32:00;6.50;1.00
318;DHT22;146;53.448;10.228;2023-02-04T11:34:31;6.50;1.00
318;DHT22;146;53.448;10.228;2023-02-04T11:37:35;6.50;1.00
318;DHT22;146;53.448;10.228;2023-02-04T11:40:20;6.60;1.00
318;DHT22;146;53.448;10.228;2023-02-04T11:42:48;6.60;1.00
318;DHT22;146;53.448;10.228;2023-02-04T11:45:17;6.60;1.00
318;DHT22;146;53.448;10.228;2023-02-04T11:47:45;6.50;1.00
318;DHT22;146;53.448;10.228;2023-02-04T11:50:16;6.50;1.00
318;DHT22;146;53.448;10.228;2023-02-04T11:52:44;6.30;1.00
318;DHT22;146;53.448;10.228;2023-02-04T11:55:12;6.20;1.00
318;DHT22;146;53.448;10.228;2023-02-04T11:57:40;6.10;1.00
318;DHT22;146;53.448;10.228;2023-02-04T12:00:12;6.20;1.00
318;DHT22;146;53.448;10.228;2023-02-04T12:02:41;6.30;1.00
318;DHT22;146;53.448;10.228;2023-02-04T12:05:11;6.30;1.00
318;DHT22;146;53.448;10.228;2023-02-04T12:07:38;6.00;1.00
318;DHT22;146;53.448;10.228;2023-02-04T12:10:18;6.10;1.00
318;DHT22;146;53.448;10.228;2023-02-04T12:12:49;6.20;1.00
318;DHT22;146;53.448;10.228;2023-02-04T12:15:21;6.20;1.00
318;DHT22;146;53.448;10.228;2023-02-04T12:18:00;6.10;1.00
318;DHT22;146;53.448;10.228;2023-02-04T12:20:27;6.20;1.00
318;DHT22;146;53.448;10.228;2023-02-04T12:22:54;6.20;1.00
318;DHT22;146;53.448;10.228;2023-02-04T12:25:22;6.10;1.00
318;DHT22;146;53.448;10.228;2023-02-04T12:27:49;6.00;1.00
318;DHT22;146;53.448;10.228;2023-02-04T12:30:19;6.00;1.00
318;DHT22;146;53.448;10.228;2023-02-04T12:32:46;5.90;1.00
318;DHT22;146;53.448;10.228;2023-02-04T12:35:15;5.90;1.00
318;DHT22;146;53.448;10.228;2023-02-04T12:40:41;5.80;1.00
318;DHT22;146;53.448;10.228;2023-02-04T12:43:09;5.70;1.00
318;DHT22;146;53.448;10.228;2023-02-04T12:45:36;5.70;1.00
318;DHT22;146;53.448;10.228;2023-02-04T12:48:04;5.70;1.00
318;DHT22;146;53.448;10.228;2023-02-04T12:50:31;5.80;1.00
318;DHT22;146;53.448;10.228;2023-02-04T12:52:59;5.90;1.00
318;DHT22;146;53.448;10.228;2023-02-04T12:55:27;5.90;1.00
318;DHT22;146;53.448;10.228;2023-02-04T12:57:55;5.90;1.00
318;DHT22;146;53.448;10.228;2023-02-04T13:00:22;6.10;1.00
318;DHT22;146;53.448;10.228;2023-02-04T13:02:51;6.20;1.00
318;DHT22;146;53.448;10.228;2023-02-04T13:05:19;6.30;1.00
318;DHT22;146;53.448;10.228;2023-02-04T13:07:46;6.30;1.00
318;DHT22;146;53.448;10.228;2023-02-04T13:10:13;6.40;1.00
318;DHT22;146;53.448;10.228;2023-02-04T13:12:40;6.50;1.00
318;DHT22;146;53.448;10.228;2023-02-04T13:15:09;6.50;1.00
318;DHT22;146;53.448;10.228;2023-02-04T13:17:36;6.60;1.00
318;DHT22;146;53.448;10.228;2023-02-04T13:20:04;6.60;1.00
318;DHT22;146;53.448;10.228;2023-02-04T13:22:30;6.50;1.00
318;DHT22;146;53.448;10.228;2023-02-04T13:25:00;6.60;1.00
318;DHT22;146;53.448;10.228;2023-02-04T13:27:27;6.70;1.00
318;DHT22;146;53.448;10.228;2023-02-04T13:29:54;6.60;1.00
318;DHT22;146;53.448;10.228;2023-02-04T13:32:22;6.60;1.00
318;DHT22;146;53.448;10.228;2023-02-04T13:34:49;6.80;1.00
318;DHT22;146;53.448;10.228;2023-02-04T13:37:16;6.90;1.00
318;DHT22;146;53.448;10.228;2023-02-04T13:39:42;6.80;1.00
318;DHT22;146;53.448;10.228;2023-02-04T13:42:09;6.80;1.00
318;DHT22;146;53.448;10.228;2023-02-04T13:44:36;7.00;1.00
318;DHT22;146;53.448;10.228;2023-02-04T13:47:03;6.80;1.00
318;DHT22;146;53.448;10.228;2023-02-04T13:49:31;6.90;1.00
318;DHT22;146;53.448;10.228;2023-02-04T13:51:58;7.10;1.00
318;DHT22;146;53.448;10.228;2023-02-04T13:54:24;7.00;1.00
318;DHT22;146;53.448;10.228;2023-02-04T13:56:51;7.10;1.00
318;DHT22;146;53.448;10.228;2023-02-04T13:59:18;7.00;1.00
318;DHT22;146;53.448;10.228;2023-02-04T14:01:45;7.00;1.00
318;DHT22;146;53.448;10.228;2023-02-04T14:04:11;7.10;1.00
318;DHT22;146;53.448;10.228;2023-02-04T14:06:40;7.20;1.00
318;DHT22;146;53.448;10.228;2023-02-04T14:09:08;7.10;1.00
318;DHT22;146;53.448;10.228;2023-02-04T14:11:36;7.00;1.00
318;DHT22;146;53.448;10.228;2023-02-04T14:14:23;7.00;1.00
318;DHT22;146;53.448;10.228;2023-02-04T14:20:53;6.70;1.00
318;DHT22;146;53.448;10.228;2023-02-04T14:23:40;6.50;1.00
318;DHT22;146;53.448;10.228;2023-02-04T14:38:04;5.60;1.00
318;DHT22;146;53.448;10.228;2023-02-04T14:40:32;5.50;1.00
318;DHT22;146;53.448;10.228;2023-02-04T14:42:59;5.50;1.00
318;DHT22;146;53.448;10.228;2023-02-04T14:45:26;5.30;1.00
318;DHT22;146;53.448;10.228;2023-02-04T14:47:53;5.30;1.00
318;DHT22;146;53.448;10.228;2023-02-04T16:52:10;4.20;1.00
318;DHT22;146;53.448;10.228;2023-02-04T16:54:37;4.20;1.00
318;DHT22;146;53.448;10.228;2023-02-04T16:57:04;4.10;1.00
318;DHT22;146;53.448;10.228;2023-02-04T16:59:31;4.10;1.00
318;DHT22;146;53.448;10.228;2023-02-04T17:02:00;4.00;1.00
318;DHT22;146;53.448;10.228;2023-02-04T17:04:27;4.00;1.00
318;DHT22;146;53.448;10.228;2023-02-04T17:06:55;3.90;1.00
318;DHT22;146;53.448;10.228;2023-02-04T17:09:23;3.90;1.00
318;DHT22;146;53.448;10.228;2023-02-04T17:11:50;3.90;1.00
318;DHT22;146;53.448;10.228;2023-02-04T17:14:17;3.90;1.00
318;DHT22;146;53.448;10.228;2023-02-04T17:16:46;3.90;1.00
318;DHT22;146;53.448;10.228;2023-02-04T17:19:14;3.80;1.00
318;DHT22;146;53.448;10.228;2023-02-04T17:21:43;3.70;1.00
318;DHT22;146;53.448;10.228;2023-02-04T17:24:10;3.70;1.00
318;DHT22;146;53.448;10.228;2023-02-04T17:26:39;3.60;1.00
318;DHT22;146;53.448;10.228;2023-02-04T17:29:07;3.50;1.00
318;DHT22;146;53.448;10.228;2023-02-04T17:31:35;3.50;1.00
318;DHT22;146;53.448;10.228;2023-02-04T17:34:02;3.40;1.00
318;DHT22;146;53.448;10.228;2023-02-04T17:36:29;3.40;1.00
318;DHT22;146;53.448;10.228;2023-02-04T17:38:56;3.30;1.00
318;DHT22;146;53.448;10.228;2023-02-04T17:41:23;3.40;1.00
318;DHT22;146;53.448;10.228;2023-02-04T17:43:51;3.30;1.00
318;DHT22;146;53.448;10.228;2023-02-04T17:46:18;3.30;1.00
318;DHT22;146;53.448;10.228;2023-02-04T17:48:45;3.30;1.00
318;DHT22;146;53.448;10.228;2023-02-04T17:51:12;3.40;1.00
318;DHT22;146;53.448;10.228;2023-02-04T17:53:39;3.40;1.00
318;DHT22;146;53.448;10.228;2023-02-04T17:56:09;3.40;1.00
318;DHT22;146;53.448;10.228;2023-02-04T17:58:39;3.50;1.00
318;DHT22;146;53.448;10.228;2023-02-04T18:01:12;3.50;1.00
318;DHT22;146;53.448;10.228;2023-02-04T18:03:39;3.50;1.00
318;DHT22;146;53.448;10.228;2023-02-04T18:06:17;3.30;1.00
318;DHT22;146;53.448;10.228;2023-02-04T18:08:44;3.30;1.00
318;DHT22;146;53.448;10.228;2023-02-04T18:11:14;3.20;1.00
318;DHT22;146;53.448;10.228;2023-02-04T18:13:42;3.10;1.00
318;DHT22;146;53.448;10.228;2023-02-04T18:16:21;3.00;1.00
318;DHT22;146;53.448;10.228;2023-02-04T18:18:50;2.80;1.00
318;DHT22;146;53.448;10.228;2023-02-04T18:21:20;2.70;1.00
318;DHT22;146;53.448;10.228;2023-02-04T18:23:48;2.70;1.00
318;DHT22;146;53.448;10.228;2023-02-04T18:26:20;2.70;1.00
318;DHT22;146;53.448;10.228;2023-02-04T18:28:49;2.70;1.00
318;DHT22;146;53.448;10.228;2023-02-04T18:31:32;2.70;1.00
318;DHT22;146;53.448;10.228;2023-02-04T18:34:00;2.70;1.00
318;DHT22;146;53.448;10.228;2023-02-04T18:36:28;2.60;1.00
318;DHT22;146;53.448;10.228;2023-02-04T18:38:59;2.50;1.00
318;DHT22;146;53.448;10.228;2023-02-04T18:41:28;2.60;1.00
318;DHT22;146;53.448;10.228;2023-02-04T18:44:00;2.60;1.00
318;DHT22;146;53.448;10.228;2023-02-04T18:46:30;2.60;1.00
318;DHT22;146;53.448;10.228;2023-02-04T18:49:04;2.60;1.00
318;DHT22;146;53.448;10.228;2023-02-04T18:51:34;2.60;1.00
318;DHT22;146;53.448;10.228;2023-02-04T18:54:32;2.70;1.00
318;DHT22;146;53.448;10.228;2023-02-04T19:00:14;2.60;1.00
318;DHT22;146;53.448;10.228;2023-02-04T19:02:48;2.50;1.00
318;DHT22;146;53.448;10.228;2023-02-04T19:05:25;2.30;1.00
318;DHT22;146;53.448;10.228;2023-02-04T19:07:58;2.40;1.00
318;DHT22;146;53.448;10.228;2023-02-04T19:10:39;2.30;1.00
318;DHT22;146;53.448;10.228;2023-02-04T19:13:15;2.40;1.00
318;DHT22;146;53.448;10.228;2023-02-04T19:15:43;2.40;1.00
318;DHT22;146;53.448;10.228;2023-02-04T19:18:23;2.50;1.00
318;DHT22;146;53.448;10.228;2023-02-04T19:20:50;2.50;1.00
318;DHT22;146;53.448;10.228;2023-02-04T19:23:19;2.50;1.00